Childress, Texas
Current Conditions -  °F | °C
As of 12:53 PM on Thursday 18 Dec 2014 (Local Time) from KCDS Reporting Station
Overcast Overcast  
Wind Chill: 41°   Ceiling: 1400
Heat Index: 44°   Visibility: 10mi
Dew Point: 37°   Wind: 6mph
Humidity: 76%   Direction: 50°NE
Pressure: 30.14"   Gusts: NA
Location:  34.43°N, 100.21°W
Report Text: KCDS 181853Z AUTO 05005KT 10SM OVC014 07/03 A3014 RMK AO2 SLP209 T00670028
Loading
Personal Weather Stations






























Interactive Weather Map New forecast layout! Learn more

10-Day Weather Forecast

Advertisements
Track Severe Weather on mobile